Time;durP1;ratioP1;P1;durP2;ratioP2;P2;SDS_P1;SDS_P2;PMS_P1;PMS_P2;Temp;Humidity;BMP_temperature;BMP_pressure;BME280_temperature;BME280_humidity;BME280_pressure;Samples;Min_cycle;Max_cycle;Signal;HPM_P1;HPM_P2
2021/12/04 00:00:11;;;;;;;6.93;4.80;;;;;;;6.79;59.04;101073.81;2106187;28;20190;-61
2021/12/04 00:01:11;;;;;;;6.93;5.20;;;;;;;6.82;59.17;101075.78;2106005;28;20199;-62
2021/12/04 00:02:12;;;;;;;6.80;4.70;;;;;;;6.80;59.08;101075.38;2105902;28;20214;-62
2021/12/04 00:03:13;;;;;;;6.37;4.83;;;;;;;6.72;58.61;101066.34;2106279;28;20568;-61
2021/12/04 00:04:20;;;;;;;7.63;4.50;;;;;;;5.96;58.82;100941.38;2106013;28;20179;-61
2021/12/04 00:05:22;;;;;;;5.68;4.75;;;;;;;6.53;58.26;101041.19;2106308;28;20163;-61
2021/12/04 00:06:28;;;;;;;7.95;4.75;;;;;;;6.70;58.80;101073.41;2105934;28;20544;-62
2021/12/04 00:07:31;;;;;;;6.00;4.60;;;;;;;6.62;59.21;101069.88;2106323;28;20601;-61
2021/12/04 00:08:35;;;;;;;7.47;5.10;;;;;;;6.60;59.05;101068.72;2106131;28;20546;-62
2021/12/04 00:09:36;;;;;;;7.63;5.03;;;;;;;6.63;58.85;101070.69;2105469;28;20189;-61
2021/12/04 00:10:37;;;;;;;6.95;4.45;;;;;;;6.61;59.16;101068.31;2105538;28;20639;-61
2021/12/04 00:11:47;;;;;;;5.60;4.40;;;;;;;6.59;59.37;101070.69;2106062;28;20610;-62
2021/12/04 00:12:48;;;;;;;6.80;4.82;;;;;;;6.51;59.59;101068.34;2105569;28;20220;-61
2021/12/04 00:13:48;;;;;;;6.53;5.00;;;;;;;6.48;58.77;101072.66;2105266;28;20239;-61
2021/12/04 00:14:49;;;;;;;5.70;4.77;;;;;;;6.39;59.46;101088.78;2106286;28;20619;-61
2021/12/04 00:15:50;;;;;;;6.10;4.97;;;;;;;6.38;59.34;101072.66;2106016;28;20177;-61
2021/12/04 00:16:51;;;;;;;6.07;5.03;;;;;;;6.33;59.57;101076.59;2105987;28;20929;-62
2021/12/04 00:17:51;;;;;;;6.30;5.03;;;;;;;6.30;60.38;101079.34;2106089;28;20690;-61
2021/12/04 00:18:52;;;;;;;6.77;5.13;;;;;;;6.30;60.00;101080.13;2105549;28;20655;-61
2021/12/04 00:19:53;;;;;;;6.70;4.70;;;;;;;6.25;60.14;101074.25;2106080;28;20564;-61
2021/12/04 00:20:53;;;;;;;7.20;5.33;;;;;;;6.21;60.46;101079.72;2106245;28;20177;-61
2021/12/04 00:21:54;;;;;;;5.53;4.50;;;;;;;6.20;60.10;101080.13;2105915;28;20179;-61
2021/12/04 00:22:58;;;;;;;5.77;4.53;;;;;;;6.15;60.34;101077.78;2106227;28;20249;-61
2021/12/04 00:23:58;;;;;;;6.32;4.80;;;;;;;6.14;60.51;101082.47;2105911;28;20424;-62
2021/12/04 00:24:59;;;;;;;6.43;4.97;;;;;;;5.93;60.46;101052.19;2106016;28;20182;-61
2021/12/04 00:25:59;;;;;;;6.87;4.90;;;;;;;6.05;60.86;101078.53;2106027;28;20191;-61
2021/12/04 00:27:00;;;;;;;5.57;4.77;;;;;;;6.07;59.97;101087.19;2105977;28;20204;-61
2021/12/04 00:28:01;;;;;;;7.93;5.00;;;;;;;6.11;60.48;101091.50;2105864;28;20183;-61
2021/12/04 00:29:01;;;;;;;6.67;5.47;;;;;;;6.12;60.40;101090.34;2105616;28;20260;-61
2021/12/04 00:30:03;;;;;;;6.40;5.10;;;;;;;6.12;60.53;101089.53;2105965;28;20646;-61
2021/12/04 00:31:08;;;;;;;6.30;5.00;;;;;;;5.90;60.58;101068.69;2106084;28;20182;-61
2021/12/04 00:32:13;;;;;;;8.05;5.30;;;;;;;6.15;60.58;101095.03;2105798;28;20724;-61
2021/12/04 00:33:20;;;;;;;7.10;5.30;;;;;;;6.07;60.27;101089.94;2106102;28;20639;-61
2021/12/04 00:34:25;;;;;;;5.97;4.55;;;;;;;6.12;60.25;101095.84;2105833;28;20188;-61
2021/12/04 00:49:19;;;;;;;6.45;4.80;;;;;;;6.44;59.86;101085.66;2105295;28;20244;-61
2021/12/04 00:50:19;;;;;;;7.45;5.20;;;;;;;6.50;60.84;101088.78;2105867;28;20178;-61
2021/12/04 00:51:20;;;;;;;8.57;4.73;;;;;;;6.50;60.95;101088.78;2105994;28;20180;-61
2021/12/04 00:52:20;;;;;;;6.93;5.07;;;;;;;6.53;60.82;101097.06;2105746;28;20230;-61
2021/12/04 00:53:21;;;;;;;7.23;5.20;;;;;;;6.54;60.42;101095.88;2105979;28;20284;-61
2021/12/04 00:54:23;;;;;;;7.03;4.77;;;;;;;6.56;60.30;101098.25;2105735;28;20261;-62
2021/12/04 00:55:24;;;;;;;6.47;4.63;;;;;;;6.57;60.34;101099.81;2106015;28;20209;-62
2021/12/04 00:56:24;;;;;;;6.50;5.00;;;;;;;6.61;60.55;101103.34;2105198;28;20666;-61
2021/12/04 00:57:25;;;;;;;9.03;5.30;;;;;;;6.64;60.48;101099.78;2105227;28;20681;-61
2021/12/04 00:58:25;;;;;;;10.20;5.30;;;;;;;6.51;60.36;101073.84;2105798;28;20182;-61
2021/12/04 00:59:26;;;;;;;6.67;4.93;;;;;;;6.70;60.57;101095.47;2105427;28;20182;-61
2021/12/04 01:00:27;;;;;;;6.23;4.90;;;;;;;6.71;60.52;101095.06;2105798;28;20190;-61
2021/12/04 01:01:27;;;;;;;6.97;5.00;;;;;;;6.75;59.76;101095.06;2105899;28;20178;-61
2021/12/04 01:02:28;;;;;;;6.10;4.77;;;;;;;6.76;59.76;101096.66;2104972;28;20228;-62
2021/12/04 01:03:28;;;;;;;5.60;4.60;;;;;;;6.79;59.90;101096.66;2105383;28;20190;-61
2021/12/04 01:04:29;;;;;;;6.47;4.60;;;;;;;6.38;59.88;101034.13;2105654;28;20196;-61
2021/12/04 01:05:29;;;;;;;8.10;5.17;;;;;;;6.85;59.53;101102.53;2106064;28;20564;-62
2021/12/04 01:06:30;;;;;;;5.90;4.63;;;;;;;6.20;59.55;101001.09;2105828;28;20371;-61
2021/12/04 01:07:31;;;;;;;6.37;5.23;;;;;;;6.86;59.89;101095.81;2105696;28;20232;-61
2021/12/04 01:08:32;;;;;;;6.63;5.22;;;;;;;6.87;58.86;101106.47;2105822;28;20175;-61
2021/12/04 01:09:33;;;;;;;5.60;4.77;;;;;;;6.82;58.70;101101.34;2105284;28;20186;-61
2021/12/04 01:10:33;;;;;;;6.63;4.60;;;;;;;6.79;58.94;101096.66;2105939;28;20185;-61
2021/12/04 01:11:35;;;;;;;6.67;5.10;;;;;;;6.77;58.65;101095.47;2105961;28;20182;-62
2021/12/04 01:12:36;;;;;;;6.75;4.70;;;;;;;6.71;59.37;101099.81;2105870;28;20199;-61
2021/12/04 01:13:36;;;;;;;6.47;4.87;;;;;;;6.72;59.56;101099.38;2105647;28;20221;-61
2021/12/04 01:14:37;;;;;;;6.63;5.20;;;;;;;6.76;59.56;101102.16;2105822;28;20423;-61
2021/12/04 01:15:43;;;;;;;6.22;5.20;;;;;;;6.73;58.75;101097.44;2105774;28;20182;-62
2021/12/04 01:16:44;;;;;;;6.30;4.78;;;;;;;5.75;59.22;100960.56;2105974;28;20262;-62
2021/12/04 01:17:46;;;;;;;6.30;5.20;;;;;;;5.69;59.55;100937.38;2105564;28;20182;-61
2021/12/04 01:18:46;;;;;;;6.60;5.03;;;;;;;6.68;59.73;101106.09;2105525;28;20648;-62
2021/12/04 01:19:47;;;;;;;7.93;5.40;;;;;;;6.68;59.43;101092.31;2105607;28;20545;-61
2021/12/04 01:20:47;;;;;;;7.00;5.60;;;;;;;6.69;59.42;101096.66;2105957;28;20179;-62
2021/12/04 01:21:49;;;;;;;6.90;4.93;;;;;;;6.64;59.55;101099.78;2105622;28;20224;-61
2021/12/04 01:22:50;;;;;;;6.68;5.07;;;;;;;6.66;59.62;101100.97;2105883;28;20205;-61
2021/12/04 01:23:50;;;;;;;7.30;5.63;;;;;;;5.54;59.27;100924.03;2105769;28;20182;-61
2021/12/04 01:24:51;;;;;;;8.77;5.83;;;;;;;6.11;59.53;101017.19;2105858;28;20538;-62
2021/12/04 01:25:51;;;;;;;7.70;5.90;;;;;;;6.63;59.66;101092.72;2105698;28;20235;-61
2021/12/04 01:26:52;;;;;;;7.43;5.90;;;;;;;5.47;59.31;100913.81;2105954;28;20638;-61
2021/12/04 01:27:52;;;;;;;7.40;5.60;;;;;;;6.64;59.67;101083.28;2105474;28;20180;-61
2021/12/04 01:28:53;;;;;;;7.97;6.00;;;;;;;6.69;59.84;101085.63;2105330;28;20648;-61
2021/12/04 01:29:54;;;;;;;8.75;6.10;;;;;;;6.75;59.22;101084.03;2105646;28;20181;-62
2021/12/04 01:30:54;;;;;;;8.60;6.00;;;;;;;6.76;59.44;101088.41;2105832;28;20217;-61
2021/12/04 01:31:55;;;;;;;8.40;5.83;;;;;;;6.68;59.13;101070.28;2105635;28;20213;-61
2021/12/04 01:32:55;;;;;;;7.60;6.30;;;;;;;6.71;59.20;101075.78;2105906;28;20189;-61
2021/12/04 01:33:56;;;;;;;7.57;6.03;;;;;;;6.79;59.03;101077.38;2105639;28;20220;-62
2021/12/04 01:34:57;;;;;;;7.40;5.60;;;;;;;6.78;58.54;101084.06;2105833;28;20179;-61
2021/12/04 01:35:57;;;;;;;8.60;5.63;;;;;;;6.35;58.81;101010.91;2105624;28;20611;-62
2021/12/04 01:36:57;;;;;;;10.70;6.57;;;;;;;6.75;59.16;101078.53;2105842;28;20217;-62
2021/12/04 01:37:58;;;;;;;7.73;5.53;;;;;;;6.77;58.88;101076.97;2105466;28;20174;-61
2021/12/04 01:38:59;;;;;;;9.27;5.90;;;;;;;5.60;59.19;100886.72;2105332;28;20261;-61
2021/12/04 01:39:59;;;;;;;8.50;5.60;;;;;;;6.78;58.90;101073.03;2105679;28;21016;-61
2021/12/04 01:41:00;;;;;;;7.00;5.93;;;;;;;6.87;59.06;101075.38;2105771;28;20185;-61
2021/12/04 01:42:00;;;;;;;8.20;5.73;;;;;;;6.80;59.14;101075.38;2105688;28;20273;-61
2021/12/04 01:43:01;;;;;;;10.13;6.17;;;;;;;6.86;59.22;101079.31;2105730;28;20272;-62
2021/12/04 01:44:04;;;;;;;6.23;5.03;;;;;;;6.83;58.64;101067.09;2105627;28;20190;-61
2021/12/04 01:45:07;;;;;;;7.53;5.90;;;;;;;6.87;58.11;101070.66;2105661;28;20186;-61
2021/12/04 01:46:07;;;;;;;7.05;5.47;;;;;;;6.84;58.97;101065.16;2105686;28;20182;-62
2021/12/04 01:47:19;;;;;;;7.67;5.70;;;;;;;6.81;58.64;101065.97;2105834;28;20640;-61
2021/12/04 01:48:19;;;;;;;6.97;5.63;;;;;;;6.56;58.43;101030.16;2105484;28;20169;-61
2021/12/04 01:49:20;;;;;;;9.30;5.70;;;;;;;6.89;58.28;101068.31;2105181;28;20194;-61
2021/12/04 01:50:22;;;;;;;8.37;5.60;;;;;;;6.80;58.00;101065.16;2105477;28;20659;-61
2021/12/04 01:51:23;;;;;;;5.57;4.90;;;;;;;6.74;58.35;101065.94;2105809;28;20219;-61
2021/12/04 01:52:23;;;;;;;6.87;5.50;;;;;;;6.62;59.00;101064.38;2105597;28;20271;-61
2021/12/04 01:53:25;;;;;;;7.63;5.80;;;;;;;6.68;59.24;101070.28;2105857;28;20417;-61
2021/12/04 01:54:25;;;;;;;6.25;5.32;;;;;;;6.73;59.06;101067.13;2105626;28;20241;-61
2021/12/04 01:55:27;;;;;;;7.87;5.90;;;;;;;6.70;59.19;101054.94;2105677;28;20209;-60
2021/12/04 01:56:33;;;;;;;6.63;5.35;;;;;;;6.68;59.01;101059.28;2105650;28;20179;-61
2021/12/04 01:57:34;;;;;;;6.25;5.18;;;;;;;6.72;59.39;101060.06;2105704;28;20185;-61
2021/12/04 01:58:35;;;;;;;6.93;5.50;;;;;;;6.71;59.50;101055.75;2105421;28;20179;-61
2021/12/04 01:59:36;;;;;;;7.75;6.22;;;;;;;6.42;59.08;100999.13;2105888;28;20196;-61
2021/12/04 02:00:39;;;;;;;8.20;6.07;;;;;;;6.70;60.23;101054.16;2107132;28;20182;-62
2021/12/04 02:01:40;;;;;;;9.07;5.75;;;;;;;6.71;60.04;101058.50;2107027;28;20183;-61
2021/12/04 02:02:40;;;;;;;8.03;6.07;;;;;;;6.76;59.59;101058.09;2107163;28;20712;-61
2021/12/04 02:03:41;;;;;;;8.30;6.00;;;;;;;6.71;59.61;101062.03;2107149;28;20269;-61
2021/12/04 02:04:42;;;;;;;8.23;5.80;;;;;;;6.66;59.85;101067.16;2107188;28;20182;-61
2021/12/04 02:05:43;;;;;;;6.60;5.80;;;;;;;6.72;59.39;101069.09;2107066;28;20178;-62
2021/12/04 02:06:43;;;;;;;7.65;5.90;;;;;;;6.71;59.74;101066.75;2107310;28;20560;-61
2021/12/04 02:07:45;;;;;;;8.67;6.27;;;;;;;6.64;59.66;101075.81;2107104;28;20182;-61
2021/12/04 02:08:46;;;;;;;7.57;5.95;;;;;;;6.59;60.33;101067.13;2105616;28;20221;-61
2021/12/04 02:09:46;;;;;;;6.50;5.50;;;;;;;6.50;60.23;101067.53;2106208;28;20248;-62
2021/12/04 02:10:50;;;;;;;7.07;5.80;;;;;;;6.57;60.25;101073.03;2107098;28;20175;-61
2021/12/04 02:11:50;;;;;;;7.50;5.82;;;;;;;6.65;59.99;101071.06;2106887;28;20215;-62
2021/12/04 02:12:51;;;;;;;8.57;5.90;;;;;;;6.03;59.85;100977.13;2107070;28;20183;-61
2021/12/04 02:13:51;;;;;;;8.30;6.30;;;;;;;6.58;59.77;101054.56;2107026;28;20190;-61
2021/12/04 02:14:52;;;;;;;7.13;5.90;;;;;;;6.62;59.78;101072.66;2107236;28;20607;-61
2021/12/04 02:15:53;;;;;;;7.30;6.07;;;;;;;6.68;60.00;101067.53;2106875;28;20562;-61
2021/12/04 02:16:53;;;;;;;7.57;5.97;;;;;;;6.64;59.95;101062.03;2107178;28;20178;-62
2021/12/04 02:17:54;;;;;;;6.83;5.57;;;;;;;6.73;59.96;101064.38;2107030;28;20662;-61
2021/12/04 02:18:55;;;;;;;6.53;5.73;;;;;;;6.79;59.59;101093.91;2106323;28;20213;-61
2021/12/04 02:19:55;;;;;;;6.63;5.93;;;;;;;6.82;59.16;101053.75;2106993;28;20194;-61
2021/12/04 02:20:56;;;;;;;6.70;5.33;;;;;;;6.84;59.15;101056.88;2107126;28;20195;-61
2021/12/04 02:21:57;;;;;;;7.43;6.03;;;;;;;6.86;59.58;101054.50;2106958;28;20265;-60
2021/12/04 02:22:57;;;;;;;7.90;6.17;;;;;;;6.86;59.40;101051.75;2107154;28;20265;-61
2021/12/04 02:23:58;;;;;;;6.90;5.83;;;;;;;6.81;58.95;101055.72;2106967;28;20253;-61
2021/12/04 02:24:59;;;;;;;7.83;6.00;;;;;;;6.76;59.28;101049.84;2107146;28;20651;-61
2021/12/04 02:25:59;;;;;;;7.47;5.90;;;;;;;5.45;59.16;100838.41;2106758;28;20175;-61
2021/12/04 02:27:00;;;;;;;7.90;6.07;;;;;;;6.83;58.86;101049.81;2107130;28;20179;-61
2021/12/04 02:28:02;;;;;;;8.93;5.97;;;;;;;6.77;58.63;101048.66;2106870;28;20194;-61
2021/12/04 02:29:02;;;;;;;8.52;6.03;;;;;;;6.77;58.24;101041.16;2106363;28;20185;-61
2021/12/04 02:30:09;;;;;;;7.97;6.40;;;;;;;6.79;58.93;101040.75;2106826;28;20182;-62
2021/12/04 02:31:10;;;;;;;7.35;6.13;;;;;;;6.82;58.57;101049.00;2107029;28;20165;-62
2021/12/04 02:32:10;;;;;;;7.07;5.70;;;;;;;6.81;58.55;101039.19;2106866;28;20206;-61
2021/12/04 02:33:11;;;;;;;8.27;6.23;;;;;;;6.74;59.01;101043.91;2107024;28;20625;-61
2021/12/04 02:34:29;;;;;;;7.47;6.00;;;;;;;6.35;59.02;100985.38;2106792;28;20713;-61
2021/12/04 02:35:30;;;;;;;7.15;6.05;;;;;;;6.77;59.02;101034.88;2107108;28;20234;-61
2021/12/04 02:36:30;;;;;;;7.25;5.95;;;;;;;6.66;59.03;101029.38;2106768;28;20616;-61
2021/12/04 02:37:32;;;;;;;7.30;6.20;;;;;;;6.70;59.23;101041.16;2106973;28;20179;-61
2021/12/04 02:38:34;;;;;;;9.23;6.65;;;;;;;6.72;59.59;101049.81;2106665;28;20175;-61
2021/12/04 02:39:38;;;;;;;8.15;6.53;;;;;;;6.74;59.35;101044.72;2106438;28;20648;-61
2021/12/04 02:40:42;;;;;;;8.43;6.68;;;;;;;6.39;58.92;101002.66;2106865;28;20210;-61
2021/12/04 02:41:43;;;;;;;7.22;6.00;;;;;;;6.78;59.05;101056.53;2106740;28;20267;-61
2021/12/04 02:42:45;;;;;;;7.78;6.50;;;;;;;6.80;59.06;101059.66;2106999;28;20202;-61
2021/12/04 02:43:46;;;;;;;8.48;6.43;;;;;;;6.65;59.31;101049.03;2106057;28;20189;-61
2021/12/04 02:44:48;;;;;;;9.52;6.20;;;;;;;6.91;58.64;101070.63;2106416;28;20187;-61
2021/12/04 02:45:48;;;;;;;8.77;6.47;;;;;;;6.89;58.74;101071.06;2106557;28;20182;-62
2021/12/04 02:46:50;;;;;;;8.13;6.37;;;;;;;6.89;58.92;101067.50;2106856;28;20179;-62
2021/12/04 02:47:50;;;;;;;9.05;6.60;;;;;;;6.77;58.57;101048.66;2106702;28;20224;-61
2021/12/04 02:48:51;;;;;;;9.17;7.17;;;;;;;6.81;58.49;101055.72;2106231;28;20181;-61
2021/12/04 02:49:52;;;;;;;7.80;6.80;;;;;;;6.92;58.69;101070.25;2106570;28;20229;-61
2021/12/04 02:50:53;;;;;;;8.18;6.63;;;;;;;6.98;58.73;101071.41;2106873;28;20570;-61
2021/12/04 02:51:54;;;;;;;7.53;6.13;;;;;;;7.01;58.44;101078.09;2106643;28;20273;-61
2021/12/04 02:52:54;;;;;;;8.17;6.10;;;;;;;6.84;58.92;101052.16;2106931;28;20186;-61
2021/12/04 02:53:55;;;;;;;8.70;6.77;;;;;;;7.02;58.37;101079.69;2106756;28;20186;-62
2021/12/04 02:54:55;;;;;;;7.87;6.20;;;;;;;6.88;58.62;101079.72;2106153;28;20277;-61
2021/12/04 02:55:56;;;;;;;8.73;6.23;;;;;;;6.84;58.91;101070.66;2106114;28;20190;-61
2021/12/04 02:56:56;;;;;;;7.10;6.40;;;;;;;6.84;58.97;101092.69;2106817;28;20284;-61
2021/12/04 02:57:57;;;;;;;8.03;6.50;;;;;;;6.89;58.70;101076.56;2106595;28;20183;-61
2021/12/04 02:59:01;;;;;;;8.00;6.00;;;;;;;6.86;58.58;101071.03;2106057;28;20186;-62
2021/12/04 03:00:04;;;;;;;8.50;5.95;;;;;;;6.81;58.15;101077.75;2106687;28;20571;-61
2021/12/04 03:01:05;;;;;;;8.40;6.10;;;;;;;6.13;58.13;100964.53;2106858;28;20182;-61
2021/12/04 03:02:14;;;;;;;8.37;6.30;;;;;;;6.85;58.66;101072.22;2106397;28;20222;-61
2021/12/04 03:03:17;;;;;;;6.70;6.00;;;;;;;6.90;58.38;101074.56;2098521;28;20174;-61
2021/12/04 03:04:18;;;;;;;9.13;6.53;;;;;;;6.89;58.73;101067.50;2102233;28;20189;-61
2021/12/04 03:05:26;;;;;;;7.30;6.27;;;;;;;6.88;58.74;101066.69;2106695;28;20647;-61
2021/12/04 03:06:27;;;;;;;9.70;6.80;;;;;;;6.81;58.61;101066.72;2106661;28;20163;-62
2021/12/04 03:07:27;;;;;;;9.27;6.90;;;;;;;6.75;59.17;101076.56;2106741;28;20209;-61
2021/12/04 03:08:28;;;;;;;8.10;6.87;;;;;;;6.69;58.94;101066.34;2106545;28;20553;-61
2021/12/04 03:09:28;;;;;;;7.63;6.27;;;;;;;6.59;59.55;101065.19;2105962;28;20184;-62
2021/12/04 03:10:29;;;;;;;8.93;6.80;;;;;;;6.65;59.27;101071.88;2106558;28;20261;-62
2021/12/04 03:11:29;;;;;;;8.70;6.63;;;;;;;6.71;59.45;101075.03;2106773;28;20203;-62
2021/12/04 03:12:30;;;;;;;8.03;6.53;;;;;;;6.26;59.06;100998.75;2106421;28;20204;-62
2021/12/04 03:13:30;;;;;;;8.53;6.40;;;;;;;6.76;58.54;101071.88;2106700;28;20217;-61
2021/12/04 03:14:31;;;;;;;8.70;6.50;;;;;;;6.73;58.35;101065.19;2106547;28;20244;-62
2021/12/04 03:15:32;;;;;;;8.53;6.30;;;;;;;6.81;57.96;101077.75;2106510;28;20182;-61
2021/12/04 03:16:35;;;;;;;8.00;6.00;;;;;;;6.80;57.86;101075.38;2106517;28;20178;-61
2021/12/04 03:17:35;;;;;;;7.95;5.90;;;;;;;6.80;58.26;101078.13;2106640;28;20188;-61
2021/12/04 03:18:35;;;;;;;8.13;6.53;;;;;;;6.82;57.94;101071.03;2106594;28;20723;-61
2021/12/04 03:19:39;;;;;;;8.73;6.10;;;;;;;6.90;57.50;101094.66;2105861;28;20205;-61
2021/12/04 03:20:44;;;;;;;7.28;5.75;;;;;;;6.92;57.10;101075.00;2106528;28;20209;-62
2021/12/04 03:21:46;;;;;;;8.88;5.80;;;;;;;6.86;57.00;101074.59;2106352;28;20171;-61
2021/12/04 03:22:48;;;;;;;8.05;5.68;;;;;;;6.85;57.44;101073.03;2106583;28;20676;-61
2021/12/04 03:24:56;;;;;;;7.50;5.80;;;;;;;6.92;56.91;101084.03;2106809;28;20167;-61
2021/12/04 03:25:59;;;;;;;8.93;5.80;;;;;;;6.88;56.69;101086.00;2106400;28;20194;-61
2021/12/04 03:26:59;;;;;;;6.88;5.65;;;;;;;6.88;56.71;101087.97;2106503;28;20194;-61
2021/12/04 03:28:04;;;;;;;8.40;5.77;;;;;;;6.92;57.14;101084.03;2106352;28;20277;-62
2021/12/04 03:29:10;;;;;;;7.20;5.50;;;;;;;6.94;56.75;101092.69;2105866;28;20261;-61
2021/12/04 03:30:22;;;;;;;9.10;6.22;;;;;;;6.90;56.48;101078.13;2106237;28;20242;-62
2021/12/04 03:41:32;;;;;;;8.30;6.03;;;;;;;6.80;57.72;101083.66;2106604;28;20163;-61
2021/12/04 03:42:34;;;;;;;8.33;6.67;;;;;;;6.76;57.68;101088.41;2106251;28;20171;-61
2021/12/04 03:43:35;;;;;;;8.27;6.60;;;;;;;6.65;57.91;101071.06;2106366;28;20186;-61
2021/12/04 03:44:35;;;;;;;7.73;6.80;;;;;;;6.15;58.21;101000.72;2105625;28;20236;-61
2021/12/04 03:45:40;;;;;;;10.20;6.97;;;;;;;6.79;58.64;101093.09;2105508;28;20220;-61
2021/12/04 03:46:44;;;;;;;9.07;6.90;;;;;;;6.75;58.83;101086.81;2106341;28;20186;-61
2021/12/04 03:47:48;;;;;;;9.50;7.18;;;;;;;6.75;58.84;101084.03;2106203;28;20178;-61
2021/12/04 03:49:50;;;;;;;7.80;6.80;;;;;;;6.71;59.14;101078.53;2106030;28;20179;-61
2021/12/04 03:50:51;;;;;;;8.25;6.68;;;;;;;6.80;59.18;101080.88;2106386;28;20182;-62
2021/12/04 03:51:51;;;;;;;9.70;7.20;;;;;;;6.84;59.15;101081.69;2106035;28;20182;-62
2021/12/04 03:52:52;;;;;;;9.00;6.93;;;;;;;6.90;58.35;101085.59;2106329;28;20199;-61
2021/12/04 03:53:52;;;;;;;8.77;7.27;;;;;;;6.96;58.62;101084.81;2106239;28;20224;-61
2021/12/04 03:54:53;;;;;;;8.63;6.83;;;;;;;6.90;58.42;101085.59;2106359;28;20655;-61
2021/12/04 03:55:53;;;;;;;9.23;7.40;;;;;;;6.90;58.33;101088.34;2106257;28;20261;-62
2021/12/04 03:57:03;;;;;;;9.03;6.93;;;;;;;6.89;58.48;101092.28;2106398;28;20229;-62
2021/12/04 03:58:03;;;;;;;8.88;7.40;;;;;;;6.83;58.76;101091.91;2106226;28;20540;-61
2021/12/04 03:59:04;;;;;;;7.67;6.60;;;;;;;6.43;59.11;101020.75;2105859;28;20179;-61
2021/12/04 04:00:05;;;;;;;9.47;7.20;;;;;;;6.80;58.98;101087.19;2106059;28;20617;-62
2021/12/04 04:01:06;;;;;;;9.10;7.18;;;;;;;6.13;58.62;100981.84;2106410;28;20266;-62
2021/12/04 04:02:10;;;;;;;8.67;6.83;;;;;;;6.91;58.86;101092.69;2105931;28;20225;-62
2021/12/04 04:03:10;;;;;;;9.10;7.75;;;;;;;6.84;58.49;101099.00;2106151;28;20213;-61
2021/12/04 04:04:11;;;;;;;10.33;7.07;;;;;;;6.81;58.85;101102.53;2106073;28;20186;-62
2021/12/04 04:05:12;;;;;;;8.90;6.97;;;;;;;6.82;58.94;101104.09;2106127;28;20187;-61
2021/12/04 04:06:13;;;;;;;10.77;7.85;;;;;;;6.90;58.91;101091.91;2106143;28;20229;-61
2021/12/04 04:07:13;;;;;;;9.07;7.30;;;;;;;6.88;58.52;101097.00;2106361;28;20202;-61
2021/12/04 04:08:15;;;;;;;8.00;6.83;;;;;;;6.69;58.78;101080.13;2106044;28;20177;-61
2021/12/04 04:09:16;;;;;;;8.93;7.18;;;;;;;6.89;58.35;101095.06;2105654;28;20186;-61
2021/12/04 04:10:17;;;;;;;8.33;7.03;;;;;;;6.13;58.85;100986.56;2106021;28;20258;-61
2021/12/04 04:11:17;;;;;;;9.07;7.50;;;;;;;6.91;58.78;101087.97;2106251;28;20194;-61
2021/12/04 04:12:18;;;;;;;8.37;7.10;;;;;;;6.92;58.50;101088.75;2106056;28;20293;-61
2021/12/04 04:13:19;;;;;;;8.63;7.37;;;;;;;6.99;58.61;101092.28;2106140;28;20182;-62
2021/12/04 04:14:19;;;;;;;8.77;7.33;;;;;;;6.92;57.82;101075.75;2106070;28;20229;-61
2021/12/04 04:15:21;;;;;;;9.77;7.57;;;;;;;6.97;57.98;101088.34;2106307;28;20175;-61
2021/12/04 04:16:22;;;;;;;9.95;7.13;;;;;;;6.89;58.21;101084.84;2105983;28;20183;-61
2021/12/04 04:17:22;;;;;;;9.57;7.63;;;;;;;6.84;58.65;101081.69;2106214;28;20257;-61
2021/12/04 04:18:23;;;;;;;8.37;7.33;;;;;;;6.88;58.42;101083.22;2106077;28;20167;-61
2021/12/04 04:19:25;;;;;;;9.70;7.07;;;;;;;6.94;58.69;101083.63;2105706;28;20183;-61
2021/12/04 04:20:25;;;;;;;10.13;7.30;;;;;;;6.78;58.35;101052.97;2105720;28;20177;-62
2021/12/04 04:21:26;;;;;;;9.47;7.57;;;;;;;6.77;58.15;101054.16;2106225;28;20190;-62
2021/12/04 04:22:27;;;;;;;9.57;7.20;;;;;;;7.03;58.10;101093.03;2105681;28;20565;-62
2021/12/04 04:23:27;;;;;;;8.57;6.80;;;;;;;7.03;57.73;101084.00;2106130;28;20667;-61
2021/12/04 04:24:29;;;;;;;8.93;7.30;;;;;;;7.02;58.03;101091.47;2106085;28;20644;-61
2021/12/04 04:25:30;;;;;;;8.75;7.18;;;;;;;7.04;57.65;101086.38;2106178;28;20567;-61
2021/12/04 04:26:30;;;;;;;9.70;7.33;;;;;;;7.10;57.71;101086.75;2105948;28;20183;-62
2021/12/04 04:27:31;;;;;;;9.00;6.90;;;;;;;6.20;57.56;100945.28;2106148;28;20271;-62
2021/12/04 04:28:31;;;;;;;8.47;7.00;;;;;;;7.13;57.88;101086.72;2105897;28;20660;-62
2021/12/04 04:29:32;;;;;;;9.43;7.60;;;;;;;7.11;57.51;101086.34;2105505;28;20175;-61
2021/12/04 04:30:33;;;;;;;12.10;7.37;;;;;;;7.17;58.18;101095.78;2105815;28;20178;-61
2021/12/04 04:31:36;;;;;;;9.80;6.70;;;;;;;7.18;57.56;101089.06;2106152;28;20648;-62
2021/12/04 04:32:37;;;;;;;12.43;7.45;;;;;;;7.21;57.78;101093.81;2105258;28;20467;-61
2021/12/04 04:33:43;;;;;;;8.93;6.50;;;;;;;7.25;56.81;101094.59;2105346;28;20186;-61
2021/12/04 04:34:50;;;;;;;11.77;7.60;;;;;;;7.24;57.05;101095.78;2106134;28;20163;-62
2021/12/04 04:36:06;;;;;;;12.90;7.18;;;;;;;7.22;56.97;101095.38;2105996;28;20189;-61
2021/12/04 04:38:33;;;;;;;8.97;6.30;;;;;;;7.25;56.93;101104.81;2105842;28;20175;-62
2021/12/04 05:01:51;;;;;;;10.52;7.00;;;;;;;7.18;57.35;101121.38;2105990;28;20623;-61
2021/12/04 05:11:06;;;;;;;10.20;7.05;;;;;;;7.17;57.55;101139.88;2105794;28;20196;-62
2021/12/04 05:13:10;;;;;;;9.83;7.17;;;;;;;7.14;56.70;101129.66;2105941;28;20198;-62
2021/12/04 05:14:18;;;;;;;11.18;7.63;;;;;;;6.61;57.25;101057.31;2105675;28;20178;-62
2021/12/04 05:16:49;;;;;;;10.05;7.78;;;;;;;7.16;57.18;101143.03;2105738;28;20191;-61
2021/12/04 05:19:11;;;;;;;12.97;7.00;;;;;;;7.17;57.90;101141.88;2105361;28;20183;-62
2021/12/04 05:20:14;;;;;;;8.98;6.80;;;;;;;7.15;57.49;101145.00;2105644;28;20190;-61
2021/12/04 05:21:15;;;;;;;8.60;6.90;;;;;;;7.14;57.39;101140.69;2105690;28;20179;-62
2021/12/04 05:22:16;;;;;;;10.43;6.97;;;;;;;7.13;56.73;101136.34;2105791;28;20179;-61
2021/12/04 05:23:16;;;;;;;8.13;7.03;;;;;;;7.12;56.75;101137.53;2105926;28;20269;-61
2021/12/04 05:24:17;;;;;;;10.60;6.93;;;;;;;7.14;56.52;101142.66;2105562;28;20175;-62
2021/12/04 05:25:17;;;;;;;11.13;7.87;;;;;;;7.17;57.14;101147.38;2105876;28;20181;-62
2021/12/04 05:26:27;;;;;;;8.67;7.07;;;;;;;7.18;56.31;101146.97;2105727;28;20630;-61
2021/12/04 05:27:27;;;;;;;9.13;6.95;;;;;;;7.19;56.77;101142.25;2105907;28;20160;-61
2021/12/04 05:28:28;;;;;;;8.53;6.87;;;;;;;7.14;56.53;101140.69;2105650;28;20172;-62
2021/12/04 05:29:29;;;;;;;10.90;7.22;;;;;;;7.01;56.92;101120.22;2105161;28;20261;-62
2021/12/04 05:30:30;;;;;;;9.17;6.90;;;;;;;6.31;56.25;101006.59;2105741;28;20233;-62
2021/12/04 05:31:30;;;;;;;11.20;7.30;;;;;;;6.74;56.73;101086.03;2105554;28;20183;-62
2021/12/04 05:32:30;;;;;;;8.90;6.83;;;;;;;7.13;56.68;101141.09;2105604;28;20191;-61
2021/12/04 05:33:31;;;;;;;9.53;7.10;;;;;;;7.12;56.67;101148.56;2105860;28;20210;-61
2021/12/04 05:34:32;;;;;;;11.57;6.63;;;;;;;7.13;56.81;101158.38;2106242;28;20183;-62
2021/12/04 05:35:33;;;;;;;8.75;6.80;;;;;;;7.01;57.08;101127.69;2107531;28;20167;-61
2021/12/04 05:36:34;;;;;;;8.50;6.67;;;;;;;6.58;56.39;101062.81;2107389;28;20180;-61
2021/12/04 05:37:34;;;;;;;11.83;7.67;;;;;;;7.18;56.94;101148.94;2107510;28;20203;-62
2021/12/04 05:38:36;;;;;;;9.70;7.07;;;;;;;7.18;56.46;101146.97;2107315;28;20179;-61
2021/12/04 05:39:37;;;;;;;11.27;7.80;;;;;;;6.68;56.79;101070.28;2106836;28;20716;-62
2021/12/04 05:40:37;;;;;;;11.70;7.30;;;;;;;7.11;57.34;101148.94;2107394;28;20565;-61
2021/12/04 05:41:38;;;;;;;9.97;6.90;;;;;;;7.13;57.44;101149.34;2107162;28;20183;-62
2021/12/04 05:42:39;;;;;;;12.10;7.25;;;;;;;7.11;56.53;101143.44;2107339;28;20179;-61
2021/12/04 05:43:39;;;;;;;7.73;6.73;;;;;;;6.42;56.10;101041.19;2107386;28;20175;-62
2021/12/04 05:44:42;;;;;;;7.07;6.13;;;;;;;6.97;56.44;101146.22;2107248;28;20186;-62
2021/12/04 05:45:51;;;;;;;13.15;7.35;;;;;;;6.97;57.24;101147.00;2107219;28;20257;-61
2021/12/04 05:47:01;;;;;;;9.98;6.80;;;;;;;7.02;57.17;101143.84;2107288;28;20164;-61
2021/12/04 05:49:25;;;;;;;10.20;7.25;;;;;;;6.84;57.44;101137.56;2106892;28;20171;-61
2021/12/04 05:55:10;;;;;;;7.53;6.13;;;;;;;6.51;58.39;101137.19;2107401;28;20191;-61
2021/12/04 05:56:10;;;;;;;8.32;6.40;;;;;;;6.43;58.77;101143.84;2107206;28;20184;-61
2021/12/04 05:57:13;;;;;;;8.20;6.23;;;;;;;6.37;58.78;101143.47;2107293;28;20171;-61